createdAt,value
2023-05-19T00:01:52.527Z,101130.13
2023-05-19T00:04:19.496Z,101129.56
2023-05-19T00:06:50.865Z,101127.88
2023-05-19T00:09:17.915Z,101128.84
2023-05-19T00:11:44.763Z,101132.06
2023-05-19T00:14:11.617Z,101125.84
2023-05-19T00:16:38.729Z,101121.88
2023-05-19T00:19:06.682Z,101124.59
2023-05-19T00:21:33.304Z,101121.47
2023-05-19T00:23:59.962Z,101123.56
2023-05-19T00:26:27.701Z,101111.84
2023-05-19T00:28:54.311Z,101109.50
2023-05-19T00:31:21.003Z,101114.06
2023-05-19T00:33:47.611Z,101113.16
2023-05-19T00:36:14.242Z,101105.44
2023-05-19T00:38:40.824Z,101114.06
2023-05-19T00:41:07.529Z,101111.75
2023-05-19T00:43:37.197Z,101114.84
2023-05-19T00:46:04.143Z,101114.16
2023-05-19T00:48:30.806Z,101113.09
2023-05-19T00:51:04.032Z,101113.41
2023-05-19T00:53:33.404Z,101112.84
2023-05-19T00:56:00.893Z,101116.72
2023-05-19T00:58:30.668Z,101122.00
2023-05-19T01:01:03.462Z,101112.94
2023-05-19T01:03:32.491Z,101113.41
2023-05-19T01:06:01.729Z,101116.72
2023-05-19T01:08:29.325Z,101117.66
2023-05-19T01:10:55.982Z,101114.88
2023-05-19T01:13:22.921Z,101118.53
2023-05-19T01:16:07.882Z,101112.41
2023-05-19T01:19:04.706Z,101110.59
2023-05-19T01:21:36.311Z,101111.91
2023-05-19T01:24:13.317Z,101115.75
2023-05-19T01:26:58.586Z,101115.31
2023-05-19T01:29:49.829Z,101109.53
2023-05-19T01:32:20.825Z,101107.13
2023-05-19T01:34:49.713Z,101112.34
2023-05-19T01:37:18.462Z,101110.19
2023-05-19T01:39:46.305Z,101120.66
2023-05-19T01:42:14.464Z,101114.13
2023-05-19T01:44:41.849Z,101115.47
2023-05-19T01:47:10.872Z,101116.47
2023-05-19T01:49:37.564Z,101117.41
2023-05-19T01:52:04.354Z,101115.47
2023-05-19T01:54:31.044Z,101114.53
2023-05-19T01:56:57.564Z,101120.94
2023-05-19T01:59:37.436Z,101121.03
2023-05-19T02:02:28.433Z,101110.34
2023-05-19T02:05:02.805Z,101115.75
2023-05-19T02:08:04.572Z,101101.97
2023-05-19T02:10:35.832Z,101105.91
2023-05-19T02:13:06.404Z,101106.75
2023-05-19T02:15:40.275Z,101102.19
2023-05-19T02:18:11.424Z,101107.25
2023-05-19T02:20:39.533Z,101103.97
2023-05-19T02:23:06.277Z,101107.41
2023-05-19T02:25:32.957Z,101109.69
2023-05-19T02:27:59.542Z,101107.91
2023-05-19T02:30:26.206Z,101106.63
2023-05-19T02:32:54.216Z,101106.97
2023-05-19T02:35:21.375Z,101106.13
2023-05-19T02:37:48.019Z,101099.94
2023-05-19T02:40:14.699Z,101107.47
2023-05-19T02:42:41.260Z,101105.91
2023-05-19T02:45:08.446Z,101110.19
2023-05-19T02:47:37.036Z,101105.91
2023-05-19T02:50:05.143Z,101105.47
2023-05-19T02:52:31.884Z,101104.72
2023-05-19T02:54:58.609Z,101101.97
2023-05-19T02:57:26.691Z,101101.63
2023-05-19T02:59:53.321Z,101093.78
2023-05-19T03:02:19.895Z,101099.34
2023-05-19T03:04:46.600Z,101093.28
2023-05-19T03:07:16.381Z,101088.44
2023-05-19T03:09:43.006Z,101084.09
2023-05-19T03:12:09.649Z,101086.63
2023-05-19T03:14:40.216Z,101082.91
2023-05-19T03:17:10.640Z,101082.16
2023-05-19T03:19:37.298Z,101085.63
2023-05-19T03:22:03.994Z,101088.94
2023-05-19T03:24:30.661Z,101093.66
2023-05-19T03:26:57.251Z,101091.88
2023-05-19T03:29:23.824Z,101092.38
2023-05-19T03:31:51.979Z,101092.47
2023-05-19T03:34:18.547Z,101090.78
2023-05-19T03:36:45.097Z,101095.50
2023-05-19T03:39:12.101Z,101093.78
2023-05-19T03:41:38.640Z,101088.09
2023-05-19T03:44:05.396Z,101093.28
2023-05-19T03:46:31.939Z,101105.19
2023-05-19T03:48:58.522Z,101107.38
2023-05-19T03:51:25.166Z,101105.53
2023-05-19T03:53:52.642Z,101110.34
2023-05-19T03:56:20.775Z,101105.72
2023-05-19T03:58:49.705Z,101101.59
2023-05-19T04:01:16.327Z,101101.34
2023-05-19T04:03:42.957Z,101095.84
2023-05-19T04:06:09.640Z,101104.47
2023-05-19T04:08:36.223Z,101101.81
2023-05-19T04:11:02.843Z,101107.09
2023-05-19T04:13:29.403Z,101107.34
2023-05-19T04:15:56.001Z,101107.41
2023-05-19T04:18:22.601Z,101110.03
2023-05-19T04:20:49.179Z,101114.53
2023-05-19T04:23:15.717Z,101111.78
2023-05-19T04:25:42.500Z,101107.03
2023-05-19T04:28:09.103Z,101101.31
2023-05-19T04:30:36.767Z,101104.19
2023-05-19T04:33:04.848Z,101101.63
2023-05-19T04:35:31.645Z,101100.44
2023-05-19T04:37:58.274Z,101105.00
2023-05-19T04:40:24.823Z,101102.56
2023-05-19T04:42:52.345Z,101097.06
2023-05-19T04:45:19.155Z,101089.88
2023-05-19T04:47:48.163Z,101092.69
2023-05-19T04:50:16.420Z,101089.66
2023-05-19T04:52:45.487Z,101090.13
2023-05-19T04:55:13.225Z,101091.16
2023-05-19T04:57:40.205Z,101098.13
2023-05-19T05:00:13.843Z,101101.16
2023-05-19T05:02:41.412Z,101102.41
2023-05-19T05:05:09.418Z,101093.47
2023-05-19T05:07:36.512Z,101096.88
2023-05-19T05:10:04.000Z,101104.50
2023-05-19T05:12:31.223Z,101098.34
2023-05-19T05:14:58.284Z,101096.38
2023-05-19T05:17:25.766Z,101096.69
2023-05-19T05:19:52.932Z,101090.78
2023-05-19T05:22:19.906Z,101093.09
2023-05-19T05:24:46.902Z,101089.03
2023-05-19T05:27:14.547Z,101094.25
2023-05-19T05:29:41.072Z,101094.34
2023-05-19T05:32:08.143Z,101097.00
2023-05-19T05:34:36.013Z,101087.72
2023-05-19T05:37:02.563Z,101094.97
2023-05-19T05:39:29.292Z,101097.81
2023-05-19T05:41:55.835Z,101098.53
2023-05-19T05:44:22.384Z,101097.31
2023-05-19T05:46:49.266Z,101100.94
2023-05-19T05:49:16.157Z,101100.66
2023-05-19T05:51:51.368Z,101108.19
2023-05-19T05:54:29.900Z,101100.13
2023-05-19T05:56:57.033Z,101099.91
2023-05-19T05:59:23.604Z,101101.50
2023-05-19T06:01:50.162Z,101102.47
2023-05-19T06:04:16.718Z,101107.84
2023-05-19T06:06:43.312Z,101113.06
2023-05-19T06:09:09.835Z,101111.97
2023-05-19T06:11:36.801Z,101113.41
2023-05-19T06:14:03.560Z,101107.66
2023-05-19T06:16:30.242Z,101109.44
2023-05-19T06:18:56.980Z,101105.06
2023-05-19T06:21:23.630Z,101103.88
2023-05-19T06:23:50.254Z,101108.16
2023-05-19T06:26:16.840Z,101099.88
2023-05-19T06:28:43.389Z,101091.69
2023-05-19T06:31:09.956Z,101102.97
2023-05-19T06:33:36.563Z,101102.78
2023-05-19T06:36:03.272Z,101094.59
2023-05-19T06:38:29.811Z,101093.16
2023-05-19T06:40:56.368Z,101094.88
2023-05-19T06:43:23.004Z,101092.78
2023-05-19T06:45:49.530Z,101094.72
2023-05-19T06:48:16.153Z,101100.09
2023-05-19T06:50:42.785Z,101089.13
2023-05-19T06:53:09.354Z,101092.97
2023-05-19T06:55:43.958Z,101082.94
2023-05-19T06:58:17.239Z,101095.00
2023-05-19T07:00:43.969Z,101092.56
2023-05-19T07:03:10.993Z,101090.34
2023-05-19T07:05:37.606Z,101080.94
2023-05-19T07:08:05.047Z,101086.16
2023-05-19T07:10:31.809Z,101077.44
2023-05-19T07:12:58.692Z,101073.09
2023-05-19T07:15:25.620Z,101078.13
2023-05-19T07:17:52.200Z,101074.78
2023-05-19T07:20:18.821Z,101073.19
2023-05-19T07:22:45.344Z,101077.63
2023-05-19T07:25:11.911Z,101081.34
2023-05-19T07:27:38.462Z,101074.97
2023-05-19T07:30:05.562Z,101076.03
2023-05-19T07:32:32.252Z,101068.59
2023-05-19T07:34:59.061Z,101071.22
2023-05-19T07:37:26.374Z,101069.03
2023-05-19T07:39:53.032Z,101066.53
2023-05-19T07:42:19.666Z,101073.31
2023-05-19T07:44:46.328Z,101069.69
2023-05-19T07:47:12.904Z,101070.16
2023-05-19T07:49:39.537Z,101061.63
2023-05-19T07:52:06.436Z,101065.09
2023-05-19T07:54:33.030Z,101062.50
2023-05-19T07:56:59.604Z,101062.13
2023-05-19T07:59:26.189Z,101057.94
2023-05-19T08:01:52.774Z,101058.09
2023-05-19T08:04:19.439Z,101058.31
2023-05-19T08:06:46.108Z,101057.81
2023-05-19T08:09:12.714Z,101054.09
2023-05-19T08:11:39.327Z,101050.31
2023-05-19T08:14:06.033Z,101041.53
2023-05-19T08:16:32.777Z,101035.69
2023-05-19T08:19:02.510Z,101034.53
2023-05-19T08:21:29.556Z,101034.44
2023-05-19T08:23:57.135Z,101049.31
2023-05-19T08:26:23.775Z,101050.59
2023-05-19T08:28:50.488Z,101055.72
2023-05-19T08:31:18.370Z,101050.38
2023-05-19T08:33:45.660Z,101043.63
2023-05-19T08:36:12.297Z,101037.56
2023-05-19T08:38:38.879Z,101036.00
2023-05-19T08:41:05.958Z,101024.28
2023-05-19T08:43:32.684Z,101021.88
2023-05-19T08:46:00.709Z,101024.88
2023-05-19T08:48:31.311Z,101030.81
2023-05-19T08:51:14.544Z,101023.97
2023-05-19T08:53:45.258Z,101019.66
2023-05-19T08:56:20.005Z,101024.75
2023-05-19T08:58:49.579Z,101023.50
2023-05-19T09:01:17.341Z,101029.03
2023-05-19T09:03:45.658Z,101027.88
2023-05-19T09:06:13.107Z,101030.19
2023-05-19T09:08:43.811Z,101021.97
2023-05-19T09:11:10.868Z,101028.72
2023-05-19T09:13:37.447Z,101027.09
2023-05-19T09:16:04.682Z,101019.88
2023-05-19T09:18:31.829Z,101013.06
2023-05-19T09:21:00.495Z,101013.34
2023-05-19T09:23:29.638Z,101011.41
2023-05-19T09:25:57.033Z,101005.28
2023-05-19T09:28:29.398Z,101008.41
2023-05-19T09:31:09.996Z,101012.00
2023-05-19T09:33:46.075Z,101019.81
2023-05-19T09:36:13.810Z,101012.75
2023-05-19T09:38:40.709Z,101011.44
2023-05-19T09:41:08.719Z,101004.53
2023-05-19T09:43:36.470Z,101011.50
2023-05-19T09:46:14.714Z,100998.78
2023-05-19T09:48:41.466Z,100998.22
2023-05-19T09:51:10.840Z,101002.69
2023-05-19T09:53:38.934Z,100989.13
2023-05-19T09:56:06.233Z,100990.69
2023-05-19T09:58:37.054Z,100991.41
2023-05-19T10:01:04.974Z,100990.59
2023-05-19T10:03:35.290Z,100993.63
2023-05-19T10:06:04.508Z,100985.72
2023-05-19T10:08:31.886Z,100987.81
2023-05-19T10:10:59.263Z,100975.97
2023-05-19T10:13:27.000Z,100972.31
2023-05-19T10:15:58.886Z,100981.06
2023-05-19T10:18:28.006Z,100978.88
2023-05-19T10:20:56.014Z,100979.38
2023-05-19T10:23:23.545Z,100979.28
2023-05-19T10:25:54.840Z,100980.09
2023-05-19T10:28:26.655Z,100962.69
2023-05-19T10:30:57.008Z,100963.72
2023-05-19T10:33:37.260Z,100970.09
2023-05-19T10:36:35.522Z,100962.22
2023-05-19T10:39:08.326Z,100960.44
2023-05-19T10:42:20.100Z,100955.13
2023-05-19T10:44:54.076Z,100956.25
2023-05-19T10:47:25.125Z,100956.56
2023-05-19T10:49:55.733Z,100953.22
2023-05-19T10:52:25.995Z,100957.13
2023-05-19T10:54:54.848Z,100975.44
2023-05-19T10:57:28.476Z,100969.94
2023-05-19T10:59:57.211Z,100963.59
2023-05-19T11:02:41.852Z,100964.44
2023-05-19T11:05:14.593Z,100952.22
2023-05-19T11:07:43.836Z,100959.59
2023-05-19T11:10:10.732Z,100953.81
2023-05-19T11:12:42.878Z,100957.25
2023-05-19T11:15:14.187Z,100962.13
2023-05-19T11:17:42.517Z,100974.25
2023-05-19T11:20:20.443Z,100951.63
2023-05-19T11:23:04.232Z,100946.88
2023-05-19T11:25:46.796Z,100941.59
2023-05-19T11:28:17.677Z,100947.47
2023-05-19T11:30:46.446Z,100952.34
2023-05-19T11:33:14.088Z,100938.25
2023-05-19T11:35:41.248Z,100956.09
2023-05-19T11:38:07.864Z,100940.47
2023-05-19T11:40:34.476Z,100944.34
2023-05-19T11:43:02.018Z,100948.91
2023-05-19T11:45:31.600Z,100941.03
2023-05-19T11:48:02.676Z,100944.59
2023-05-19T11:50:31.445Z,100946.41
2023-05-19T11:53:00.977Z,100939.31
2023-05-19T11:55:28.215Z,100942.25
2023-05-19T11:58:05.083Z,100944.03
2023-05-19T12:00:39.446Z,100947.09
2023-05-19T12:03:06.924Z,100950.84
2023-05-19T12:05:39.970Z,100949.63
2023-05-19T12:08:08.811Z,100951.63
2023-05-19T12:10:35.893Z,100950.34
2023-05-19T12:13:03.357Z,100950.66
2023-05-19T12:15:31.657Z,100948.59
2023-05-19T12:18:00.345Z,100951.75
2023-05-19T12:20:28.689Z,100950.97
2023-05-19T12:22:56.286Z,100948.47
2023-05-19T12:25:23.985Z,100942.44
2023-05-19T12:27:52.779Z,100939.81
2023-05-19T12:30:26.658Z,100936.22
2023-05-19T12:32:54.298Z,100926.69
2023-05-19T12:35:23.310Z,100928.97
2023-05-19T12:37:50.581Z,100938.97
2023-05-19T12:40:17.196Z,100940.28
2023-05-19T12:42:48.706Z,100925.53
2023-05-19T12:45:15.353Z,100932.56
2023-05-19T12:47:41.987Z,100933.50
2023-05-19T12:50:10.265Z,100937.44
2023-05-19T12:52:45.796Z,100922.19
2023-05-19T12:55:13.955Z,100939.09
2023-05-19T12:57:42.062Z,100928.56
2023-05-19T13:00:22.823Z,100923.53
2023-05-19T13:03:05.419Z,100929.56
2023-05-19T13:05:34.336Z,100919.97
2023-05-19T13:08:08.391Z,100922.03
2023-05-19T13:10:37.107Z,100922.91
2023-05-19T13:13:04.850Z,100925.72
2023-05-19T13:15:36.499Z,100912.25
2023-05-19T13:18:06.087Z,100918.75
2023-05-19T13:20:36.145Z,100912.56
2023-05-19T13:23:03.581Z,100927.13
2023-05-19T13:25:30.786Z,100928.78
2023-05-19T13:27:59.510Z,100930.09
2023-05-19T13:30:26.181Z,100932.47
2023-05-19T13:32:52.845Z,100931.69
2023-05-19T13:35:27.589Z,100918.59
2023-05-19T13:37:54.615Z,100908.53
2023-05-19T13:40:29.888Z,100916.44
2023-05-19T13:43:02.460Z,100924.88
2023-05-19T13:45:32.141Z,100908.59
2023-05-19T13:47:58.773Z,100916.97
2023-05-19T13:50:25.790Z,100920.59
2023-05-19T13:52:52.525Z,100918.78
2023-05-19T13:55:22.811Z,100905.66
2023-05-19T13:57:51.623Z,100918.13
2023-05-19T14:00:19.008Z,100917.13
2023-05-19T14:02:45.802Z,100915.38
2023-05-19T14:05:12.582Z,100911.09
2023-05-19T14:07:39.445Z,100911.69
2023-05-19T14:10:06.934Z,100903.50
2023-05-19T14:12:45.034Z,100918.78
2023-05-19T14:15:20.567Z,100914.38
2023-05-19T14:17:59.304Z,100917.53
2023-05-19T14:20:27.856Z,100914.41
2023-05-19T14:22:57.177Z,100920.38
2023-05-19T14:25:23.767Z,100923.69
2023-05-19T14:27:50.592Z,100927.13
2023-05-19T14:30:17.148Z,100916.44
2023-05-19T14:32:43.748Z,100929.22
2023-05-19T14:35:10.643Z,100916.81
2023-05-19T14:37:37.229Z,100920.56
2023-05-19T14:40:04.661Z,100926.03
2023-05-19T14:42:31.262Z,100919.34
2023-05-19T14:44:57.830Z,100926.69
2023-05-19T14:47:26.223Z,100910.50
2023-05-19T14:49:59.175Z,100908.34
2023-05-19T14:52:31.586Z,100913.38
2023-05-19T14:54:58.263Z,100927.53
2023-05-19T14:57:25.128Z,100927.03
2023-05-19T14:59:51.927Z,100924.69
2023-05-19T15:02:18.579Z,100920.84
2023-05-19T15:04:45.624Z,100918.78
2023-05-19T15:07:12.941Z,100924.03
2023-05-19T15:09:39.513Z,100927.88
2023-05-19T15:12:06.357Z,100933.16
2023-05-19T15:14:32.925Z,100929.16
2023-05-19T15:16:59.917Z,100931.34
2023-05-19T15:19:26.722Z,100934.25
2023-05-19T15:21:53.762Z,100928.78
2023-05-19T15:24:20.386Z,100934.88
2023-05-19T15:26:47.695Z,100939.81
2023-05-19T15:29:15.589Z,100935.47
2023-05-19T15:31:42.317Z,100930.72
2023-05-19T15:34:09.057Z,100934.00
2023-05-19T15:36:35.663Z,100939.47
2023-05-19T15:39:03.631Z,100936.28
2023-05-19T15:41:30.176Z,100940.03
2023-05-19T15:43:56.722Z,100944.44
2023-05-19T15:46:23.376Z,100944.09
2023-05-19T15:48:49.959Z,100943.13
2023-05-19T15:51:16.551Z,100956.75
2023-05-19T15:53:43.220Z,100951.16
2023-05-19T15:56:09.830Z,100959.13
2023-05-19T15:58:36.375Z,100956.28
2023-05-19T16:01:03.290Z,100954.16
2023-05-19T16:03:30.140Z,100954.88
2023-05-19T16:05:57.034Z,100945.66
2023-05-19T16:08:23.745Z,100964.09
2023-05-19T16:10:50.649Z,100970.53
2023-05-19T16:13:17.426Z,100965.28
2023-05-19T16:15:43.980Z,100966.41
2023-05-19T16:18:11.583Z,100979.88
2023-05-19T16:20:38.373Z,100974.47
2023-05-19T16:23:05.285Z,100978.19
2023-05-19T16:25:31.865Z,100974.13
2023-05-19T16:27:58.609Z,100974.03
2023-05-19T16:30:26.379Z,100975.47
2023-05-19T16:32:55.977Z,100973.44
2023-05-19T16:35:22.842Z,100974.78
2023-05-19T16:37:49.618Z,100986.38
2023-05-19T16:40:16.279Z,100979.69
2023-05-19T16:42:42.886Z,100986.47
2023-05-19T16:45:09.968Z,100987.50
2023-05-19T16:47:36.764Z,100974.28
2023-05-19T16:50:03.911Z,100985.47
2023-05-19T16:52:30.575Z,100986.19
2023-05-19T16:54:57.140Z,100994.56
2023-05-19T16:57:23.695Z,100989.84
2023-05-19T16:59:50.350Z,100983.84
2023-05-19T17:02:16.975Z,100977.09
2023-05-19T17:04:43.701Z,100976.91
2023-05-19T17:07:16.634Z,100979.47
2023-05-19T17:09:44.486Z,100969.09
2023-05-19T17:12:11.187Z,100972.63
2023-05-19T17:14:37.812Z,100968.16
2023-05-19T17:17:04.713Z,100971.94
2023-05-19T17:19:31.642Z,100973.59
2023-05-19T17:21:58.273Z,100970.53
2023-05-19T17:24:24.924Z,100971.28
2023-05-19T17:26:51.502Z,100973.94
2023-05-19T17:29:18.131Z,100975.09
2023-05-19T17:31:44.732Z,100973.44
2023-05-19T17:34:11.382Z,100975.19
2023-05-19T17:36:38.110Z,100982.44
2023-05-19T17:39:04.638Z,100977.44
2023-05-19T17:41:31.746Z,100981.84
2023-05-19T17:43:58.705Z,100983.25
2023-05-19T17:46:25.673Z,100989.31
2023-05-19T17:48:52.247Z,100992.69
2023-05-19T17:51:18.987Z,100984.41
2023-05-19T17:53:45.916Z,100994.09
2023-05-19T17:56:12.920Z,100988.34
2023-05-19T17:58:41.260Z,100979.69
2023-05-19T18:01:08.545Z,100983.44
2023-05-19T18:03:35.456Z,100979.16
2023-05-19T18:06:02.325Z,100979.78
2023-05-19T18:08:30.571Z,100981.75
2023-05-19T18:10:57.901Z,100972.56
2023-05-19T18:13:26.066Z,100968.19
2023-05-19T18:15:52.903Z,100972.59
2023-05-19T18:18:19.680Z,100971.50
2023-05-19T18:20:46.295Z,100974.72
2023-05-19T18:23:12.861Z,100973.00
2023-05-19T18:25:39.508Z,100977.69
2023-05-19T18:28:06.173Z,100983.13
2023-05-19T18:30:32.918Z,100981.50
2023-05-19T18:33:03.391Z,100977.16
2023-05-19T18:35:30.117Z,100986.53
2023-05-19T18:37:57.420Z,100981.31
2023-05-19T18:40:24.512Z,100979.59
2023-05-19T18:42:51.091Z,100974.41
2023-05-19T18:45:17.823Z,100975.22
2023-05-19T18:47:44.473Z,100973.81
2023-05-19T18:50:11.235Z,100979.72
2023-05-19T18:52:37.831Z,100980.88
2023-05-19T18:55:04.752Z,100980.34
2023-05-19T18:57:31.607Z,100990.72
2023-05-19T18:59:58.265Z,100980.09
2023-05-19T19:02:24.886Z,100985.44
2023-05-19T19:04:51.572Z,100993.31
2023-05-19T19:07:18.633Z,100992.88
2023-05-19T19:09:45.302Z,100993.81
2023-05-19T19:12:11.882Z,100989.63
2023-05-19T19:14:39.008Z,100999.00
2023-05-19T19:17:06.085Z,100997.19
2023-05-19T19:19:32.902Z,100994.50
2023-05-19T19:21:59.596Z,100988.66
2023-05-19T19:24:26.686Z,100999.50
2023-05-19T19:26:53.267Z,101001.88
2023-05-19T19:29:21.863Z,100999.28
2023-05-19T19:31:48.834Z,100996.91
2023-05-19T19:34:15.904Z,100993.97
2023-05-19T19:36:42.567Z,100996.38
2023-05-19T19:39:09.360Z,100996.03
2023-05-19T19:41:36.624Z,101002.56
2023-05-19T19:44:03.605Z,100997.84
2023-05-19T19:46:30.275Z,100998.13
2023-05-19T19:49:00.891Z,101002.41
2023-05-19T19:51:28.563Z,101000.28
2023-05-19T19:53:55.579Z,100990.88
2023-05-19T19:56:24.562Z,100992.06
2023-05-19T19:58:51.219Z,100997.66
2023-05-19T20:01:20.436Z,100998.91
2023-05-19T20:03:47.352Z,101002.44
2023-05-19T20:06:14.191Z,100997.41
2023-05-19T20:08:40.891Z,101004.47
2023-05-19T20:11:07.518Z,100997.56
2023-05-19T20:13:34.125Z,101008.88
2023-05-19T20:16:01.048Z,101004.53
2023-05-19T20:18:29.639Z,101006.44
2023-05-19T20:20:56.500Z,101004.84
2023-05-19T20:23:23.087Z,101007.38
2023-05-19T20:26:06.717Z,101011.69
2023-05-19T20:28:36.373Z,101005.00
2023-05-19T20:31:02.934Z,101006.63
2023-05-19T20:33:29.618Z,101005.22
2023-05-19T20:35:56.167Z,101015.47
2023-05-19T20:38:22.743Z,101008.47
2023-05-19T20:40:49.408Z,101007.44
2023-05-19T20:43:16.103Z,101004.56
2023-05-19T20:45:44.287Z,101012.44
2023-05-19T20:48:11.395Z,101008.06
2023-05-19T20:50:39.582Z,101006.38
2023-05-19T20:53:07.358Z,101006.91
2023-05-19T20:55:36.128Z,101006.47
2023-05-19T20:58:02.997Z,101008.63
2023-05-19T21:00:30.622Z,101007.59
2023-05-19T21:02:57.760Z,100999.16
2023-05-19T21:05:24.718Z,100997.72
2023-05-19T21:07:51.414Z,100999.00
2023-05-19T21:10:18.155Z,101003.03
2023-05-19T21:12:44.892Z,100996.97
2023-05-19T21:15:11.713Z,101002.78
2023-05-19T21:17:38.519Z,100997.56
2023-05-19T21:20:05.947Z,101003.53
2023-05-19T21:22:32.619Z,101002.97
2023-05-19T21:24:59.206Z,100996.25
2023-05-19T21:27:25.928Z,101005.28
2023-05-19T21:29:54.034Z,101009.31
2023-05-19T21:32:21.770Z,101012.47
2023-05-19T21:34:48.450Z,101012.84
2023-05-19T21:37:17.223Z,101008.69
2023-05-19T21:39:44.373Z,101015.34
2023-05-19T21:42:11.032Z,101012.59
2023-05-19T21:44:37.705Z,101009.53
2023-05-19T21:47:04.299Z,101010.88
2023-05-19T21:49:31.383Z,101015.03
2023-05-19T21:51:58.343Z,101006.31
2023-05-19T21:54:25.060Z,101006.41
2023-05-19T21:56:51.709Z,101006.22
2023-05-19T21:59:18.424Z,101006.50
2023-05-19T22:01:45.123Z,100999.50
2023-05-19T22:04:11.946Z,101004.00
2023-05-19T22:06:38.673Z,100997.78
2023-05-19T22:09:05.270Z,101000.31
2023-05-19T22:11:31.884Z,101001.94
2023-05-19T22:13:58.482Z,101006.69
2023-05-19T22:16:25.428Z,101008.41
2023-05-19T22:18:52.194Z,101006.03
2023-05-19T22:21:18.826Z,101000.91
2023-05-19T22:23:45.554Z,101000.16
2023-05-19T22:26:12.128Z,101003.56
2023-05-19T22:28:38.698Z,101008.13
2023-05-19T22:31:05.347Z,100990.47
2023-05-19T22:33:31.912Z,100998.34
2023-05-19T22:35:58.481Z,101007.25
2023-05-19T22:38:25.102Z,100997.97
2023-05-19T22:40:51.732Z,101000.72
2023-05-19T22:43:18.296Z,100994.00
2023-05-19T22:45:44.919Z,101001.09
2023-05-19T22:48:11.620Z,100991.34
2023-05-19T22:50:38.213Z,100992.19
2023-05-19T22:53:04.823Z,100992.78
2023-05-19T22:55:31.713Z,100982.78
2023-05-19T22:57:58.465Z,100988.31
2023-05-19T23:00:25.139Z,100980.22
2023-05-19T23:02:51.787Z,100983.47
2023-05-19T23:05:18.472Z,100979.22
2023-05-19T23:07:45.148Z,100975.88
2023-05-19T23:10:11.852Z,100979.50
2023-05-19T23:12:39.980Z,100975.88
2023-05-19T23:15:07.990Z,100981.47
2023-05-19T23:17:34.610Z,100978.75
2023-05-19T23:20:01.213Z,100980.72
2023-05-19T23:22:27.948Z,100992.19
2023-05-19T23:24:54.528Z,100991.72
2023-05-19T23:27:21.130Z,100990.38
2023-05-19T23:29:51.406Z,100993.31
2023-05-19T23:32:18.081Z,100987.06
2023-05-19T23:34:44.622Z,100991.16
2023-05-19T23:37:11.778Z,100992.66
2023-05-19T23:39:38.518Z,100987.06
2023-05-19T23:42:05.801Z,100994.56
2023-05-19T23:44:32.494Z,100984.13
2023-05-19T23:46:59.172Z,100987.72
2023-05-19T23:49:26.014Z,100988.38
2023-05-19T23:51:52.705Z,100988.31
2023-05-19T23:54:19.297Z,100986.28
2023-05-19T23:56:46.148Z,100992.78
2023-05-19T23:59:12.747Z,100988.72
